Time;durP1;ratioP1;P1;durP2;ratioP2;P2;SDS_P1;SDS_P2;PMS_P1;PMS_P2;Temp;Humidity;BMP_temperature;BMP_pressure;BME280_temperature;BME280_humidity;BME280_pressure;Samples;Min_cycle;Max_cycle;Signal;HPM_P1;HPM_P2
2023/01/22 00:02:16;;;;;;;271.70;88.20;;;;;;;-2.55;100.00;99183.41;221797;1273;22653;-74
2023/01/22 00:07:18;;;;;;;259.90;83.30;;;;;;;-2.57;100.00;99189.45;221624;1277;22549;-75
2023/01/22 00:12:27;;;;;;;267.70;86.40;;;;;;;-2.59;100.00;99191.55;221780;1277;22568;-76
2023/01/22 00:17:30;;;;;;;254.30;82.90;;;;;;;-2.58;100.00;99193.85;221836;1275;22483;-75
2023/01/22 00:22:32;;;;;;;246.70;78.80;;;;;;;-2.50;100.00;99196.52;221712;1276;24227;-75
2023/01/22 00:27:34;;;;;;;241.80;76.30;;;;;;;-2.38;100.00;99206.92;221751;1272;23785;-75
2023/01/22 00:32:39;;;;;;;209.00;69.80;;;;;;;-2.23;100.00;99211.58;221827;1277;22545;-76
2023/01/22 00:37:46;;;;;;;183.30;64.10;;;;;;;-2.06;100.00;99213.84;221740;1276;22537;-75
2023/01/22 00:42:49;;;;;;;192.60;67.20;;;;;;;-1.90;100.00;99216.36;221781;1272;25459;-74
2023/01/22 00:47:51;;;;;;;211.60;71.00;;;;;;;-1.74;100.00;99219.33;221819;1277;22678;-75
2023/01/22 00:52:53;;;;;;;209.90;71.50;;;;;;;-1.62;100.00;99219.05;221651;1275;22536;-74
2023/01/22 00:57:56;;;;;;;136.10;51.00;;;;;;;-1.52;100.00;99223.04;221739;1272;24235;-75
2023/01/22 01:08:22;;;;;;;214.10;72.10;;;;;;;-1.32;100.00;99233.99;221752;1277;22530;-75
2023/01/22 01:13:26;;;;;;;199.20;67.40;;;;;;;-1.26;100.00;99237.89;221686;1275;22565;-74
2023/01/22 01:18:29;;;;;;;203.10;71.20;;;;;;;-1.18;100.00;99232.48;221574;1277;22655;-75
2023/01/22 01:23:32;;;;;;;199.50;67.60;;;;;;;-1.12;100.00;99237.71;221659;1275;22911;-75
2023/01/22 01:28:36;;;;;;;179.30;62.30;;;;;;;-1.08;100.00;99236.41;221769;1277;22789;-75
2023/01/22 01:33:38;;;;;;;196.50;68.40;;;;;;;-1.03;100.00;99240.35;221741;1272;22648;-75
2023/01/22 01:38:40;;;;;;;205.40;70.60;;;;;;;-0.99;100.00;99243.10;221532;1277;22539;-75
2023/01/22 01:43:43;;;;;;;198.10;66.40;;;;;;;-0.95;100.00;99235.53;221741;1271;24343;-76
2023/01/22 01:48:47;;;;;;;141.60;54.00;;;;;;;-0.92;100.00;99229.08;221682;1277;22547;-76
2023/01/22 01:53:51;;;;;;;171.80;61.80;;;;;;;-0.90;100.00;99231.85;221650;1272;22533;-75
2023/01/22 01:58:59;;;;;;;181.30;63.70;;;;;;;-0.89;100.00;99235.66;221782;1277;22849;-76
2023/01/22 02:04:02;;;;;;;174.00;62.60;;;;;;;-0.83;100.00;99241.38;221720;1275;25493;-74
2023/01/22 02:09:04;;;;;;;129.80;49.20;;;;;;;-0.80;100.00;99249.50;221657;1272;23034;-76
2023/01/22 02:14:13;;;;;;;117.70;45.20;;;;;;;-0.78;100.00;99255.23;221591;1269;25295;-75
2023/01/22 02:19:15;;;;;;;106.90;43.10;;;;;;;-0.79;100.00;99260.71;221724;1276;25427;-75
2023/01/22 02:24:20;;;;;;;116.90;45.40;;;;;;;-0.78;100.00;99270.92;221687;1277;23789;-74
2023/01/22 02:29:25;;;;;;;109.70;42.50;;;;;;;-0.73;100.00;99269.46;221685;1277;22594;-74
2023/01/22 02:34:27;;;;;;;115.30;46.20;;;;;;;-0.70;100.00;99277.27;221722;1276;22601;-75
2023/01/22 02:39:29;;;;;;;98.10;40.20;;;;;;;-0.69;100.00;99276.67;221598;1276;22701;-75
2023/01/22 02:44:33;;;;;;;115.30;41.00;;;;;;;-0.67;100.00;99289.38;221764;1269;24390;-75
2023/01/22 02:49:35;;;;;;;110.90;40.80;;;;;;;-0.63;100.00;99289.86;221611;1277;22718;-75
2023/01/22 02:54:37;;;;;;;103.30;38.60;;;;;;;-0.60;100.00;99287.80;221534;1277;22653;-76
2023/01/22 02:59:39;;;;;;;105.20;36.20;;;;;;;-0.58;100.00;99286.91;221591;1272;24325;-75
2023/01/22 03:04:45;;;;;;;98.50;34.00;;;;;;;-0.57;100.00;99292.14;221779;1277;25519;-75
2023/01/22 03:09:48;;;;;;;100.00;34.90;;;;;;;-0.59;100.00;99288.02;221907;1269;26290;-74
2023/01/22 03:25:32;;;;;;;87.80;32.20;;;;;;;-0.55;100.00;99289.55;221630;1260;22527;-74
2023/01/22 03:30:35;;;;;;;78.90;33.30;;;;;;;-0.51;100.00;99289.70;221695;1275;25502;-75
2023/01/22 03:35:37;;;;;;;72.40;32.00;;;;;;;-0.51;100.00;99293.35;221491;1277;22655;-75
2023/01/22 03:40:47;;;;;;;64.00;27.50;;;;;;;-0.50;100.00;99289.46;221680;1275;22591;-75
2023/01/22 03:45:50;;;;;;;66.40;30.30;;;;;;;-0.51;100.00;99291.80;221730;1273;22526;-74
2023/01/22 03:51:05;;;;;;;74.30;29.90;;;;;;;-0.54;100.00;99294.84;221761;1277;25485;-74
2023/01/22 03:56:11;;;;;;;56.90;26.40;;;;;;;-0.55;100.00;99298.49;221702;1277;22475;-74
2023/01/22 04:01:16;;;;;;;68.50;28.50;;;;;;;-0.55;100.00;99295.48;222021;1272;25443;-74
2023/01/22 04:06:21;;;;;;;71.00;29.10;;;;;;;-0.56;100.00;99291.66;221809;1277;24275;-75
2023/01/22 04:11:23;;;;;;;63.70;27.10;;;;;;;-0.55;100.00;99284.85;221797;1276;25374;-75
2023/01/22 04:16:25;;;;;;;56.80;25.00;;;;;;;-0.53;100.00;99285.73;221671;1275;22533;-75
2023/01/22 04:21:49;;;;;;;47.90;22.10;;;;;;;-0.49;100.00;99288.98;221663;1277;22535;-74
2023/01/22 04:26:53;;;;;;;44.00;19.90;;;;;;;-0.48;100.00;99294.65;221755;1277;22589;-75
2023/01/22 04:31:56;;;;;;;48.40;22.70;;;;;;;-0.50;100.00;99282.21;221783;1277;23143;-75
2023/01/22 04:37:18;;;;;;;56.20;25.10;;;;;;;-0.51;100.00;99279.74;221742;1273;24263;-75
2023/01/22 04:42:22;;;;;;;60.50;24.10;;;;;;;-0.52;100.00;99281.77;221680;1275;25601;-75
2023/01/22 04:47:24;;;;;;;68.50;26.60;;;;;;;-0.52;100.00;99286.88;221614;1270;22584;-75
2023/01/22 04:52:26;;;;;;;64.80;28.10;;;;;;;-0.54;100.00;99292.73;221710;1277;23137;-74
2023/01/22 04:57:29;;;;;;;55.40;23.40;;;;;;;-0.55;100.00;99299.70;221661;1275;22572;-75
2023/01/22 05:02:33;;;;;;;62.00;25.80;;;;;;;-0.58;100.00;99304.81;221993;1277;22538;-75
2023/01/22 05:07:36;;;;;;;50.20;22.00;;;;;;;-0.59;100.00;99300.02;221875;1275;25418;-74
2023/01/22 05:12:38;;;;;;;40.90;18.50;;;;;;;-0.59;100.00;99300.73;221694;1275;22527;-74
2023/01/22 05:17:40;;;;;;;50.50;21.70;;;;;;;-0.60;100.00;99305.86;221780;1276;22949;-74
2023/01/22 05:22:43;;;;;;;46.20;20.60;;;;;;;-0.62;100.00;99310.39;221755;1277;22581;-74
2023/01/22 05:27:45;;;;;;;53.00;21.50;;;;;;;-0.60;100.00;99312.86;221977;1277;24453;-74
2023/01/22 05:32:55;;;;;;;37.80;17.90;;;;;;;-0.59;100.00;99307.60;221705;1275;22585;-75
2023/01/22 05:37:59;;;;;;;33.50;15.00;;;;;;;-0.58;100.00;99314.58;221556;1276;24233;-74
2023/01/22 05:43:02;;;;;;;29.50;14.00;;;;;;;-0.60;100.00;99318.25;221681;1274;22536;-75
2023/01/22 05:48:06;;;;;;;35.00;16.50;;;;;;;-0.61;100.00;99321.20;221673;1277;22587;-75
2023/01/22 05:53:14;;;;;;;35.50;16.10;;;;;;;-0.60;100.00;99323.88;221678;1275;22581;-75
2023/01/22 05:58:18;;;;;;;35.70;16.40;;;;;;;-0.61;100.00;99327.56;221710;1277;22561;-74
2023/01/22 06:03:26;;;;;;;23.40;12.20;;;;;;;-0.63;100.00;99324.05;221719;1273;23299;-74
2023/01/22 06:08:32;;;;;;;22.10;11.30;;;;;;;-0.63;100.00;99324.67;221835;1277;22530;-74
2023/01/22 06:13:38;;;;;;;31.80;14.40;;;;;;;-0.65;100.00;99340.50;221709;1275;25447;-74
2023/01/22 06:18:48;;;;;;;33.50;14.20;;;;;;;-0.64;100.00;99351.38;221596;1277;22598;-74
2023/01/22 06:23:51;;;;;;;30.20;13.30;;;;;;;-0.62;100.00;99355.00;221442;1277;25548;-74
2023/01/22 06:28:56;;;;;;;33.10;13.60;;;;;;;-0.62;100.00;99362.58;221592;1277;22576;-75
2023/01/22 06:33:58;;;;;;;30.60;13.10;;;;;;;-0.62;100.00;99369.02;221584;1275;22653;-74
2023/01/22 06:39:01;;;;;;;33.40;15.30;;;;;;;-0.60;100.00;99366.39;221796;1276;24175;-74
2023/01/22 06:44:13;;;;;;;28.80;14.60;;;;;;;-0.58;100.00;99372.46;221789;1275;25372;-74
2023/01/22 06:49:16;;;;;;;26.00;11.80;;;;;;;-0.53;100.00;99367.00;221737;1275;22543;-74
2023/01/22 06:54:18;;;;;;;34.10;15.70;;;;;;;-0.50;100.00;99373.27;221725;1275;25484;-74
2023/01/22 06:59:20;;;;;;;32.00;15.60;;;;;;;-0.47;100.00;99374.54;221609;1276;22596;-74
2023/01/22 07:04:22;;;;;;;36.30;17.80;;;;;;;-0.43;100.00;99378.86;221677;1277;22530;-74
2023/01/22 07:09:27;;;;;;;33.10;18.40;;;;;;;-0.38;100.00;99379.65;221640;1276;25395;-75
2023/01/22 07:14:30;;;;;;;34.70;17.70;;;;;;;-0.34;100.00;99378.61;221633;1275;22718;-74
2023/01/22 07:19:38;;;;;;;31.00;16.00;;;;;;;-0.33;100.00;99385.69;221733;1275;22557;-74
2023/01/22 07:24:40;;;;;;;27.60;14.70;;;;;;;-0.33;100.00;99387.80;221667;1275;22600;-75
2023/01/22 07:29:43;;;;;;;26.60;13.50;;;;;;;-0.35;100.00;99401.96;221637;1277;22543;-74
2023/01/22 07:34:45;;;;;;;35.30;18.20;;;;;;;-0.28;100.00;99416.48;221642;1276;22557;-74
2023/01/22 07:39:48;;;;;;;31.30;16.20;;;;;;;-0.20;100.00;99419.72;221613;1277;23771;-75
2023/01/22 07:44:50;;;;;;;28.70;14.80;;;;;;;-0.19;100.00;99408.98;221650;1275;22620;-75
2023/01/22 07:50:02;;;;;;;33.30;17.40;;;;;;;-0.14;100.00;99422.84;221739;1276;22726;-75
2023/01/22 07:55:10;;;;;;;34.40;16.30;;;;;;;-0.10;100.00;99427.77;221504;1277;22548;-75
2023/01/22 08:00:14;;;;;;;28.10;14.50;;;;;;;-0.04;100.00;99429.73;221705;1277;22570;-75
2023/01/22 08:05:25;;;;;;;30.60;13.50;;;;;;;-0.01;100.00;99426.91;221983;1264;22714;-75
2023/01/22 08:10:27;;;;;;;31.10;13.60;;;;;;;0.00;100.00;99425.00;221685;1277;23842;-74
2023/01/22 08:15:31;;;;;;;26.30;13.10;;;;;;;0.06;100.00;99443.45;221600;1269;23921;-75
2023/01/22 08:20:34;;;;;;;22.80;12.20;;;;;;;0.11;100.00;99446.55;221777;1277;24288;-74
2023/01/22 08:25:36;;;;;;;26.20;13.30;;;;;;;0.18;100.00;99440.96;221673;1277;22596;-74
2023/01/22 08:30:40;;;;;;;33.60;15.80;;;;;;;0.34;100.00;99446.73;221650;1277;22688;-74
2023/01/22 08:35:48;;;;;;;29.90;13.80;;;;;;;0.48;100.00;99439.42;221737;1269;22679;-77
2023/01/22 08:40:52;;;;;;;29.10;13.40;;;;;;;0.46;100.00;99435.82;221822;1277;25243;-74
2023/01/22 08:45:54;;;;;;;26.40;13.60;;;;;;;0.45;100.00;99432.41;221700;1275;22581;-75
2023/01/22 08:51:01;;;;;;;22.70;11.50;;;;;;;0.47;100.00;99432.44;221787;1275;22539;-74
2023/01/22 08:56:04;;;;;;;27.50;10.70;;;;;;;0.55;100.00;99435.84;221734;1275;23284;-74
2023/01/22 09:01:06;;;;;;;26.90;12.60;;;;;;;0.64;100.00;99435.21;221722;1276;23890;-75
2023/01/22 09:06:09;;;;;;;24.20;12.70;;;;;;;0.68;100.00;99448.34;221771;1277;22589;-75
2023/01/22 09:11:11;;;;;;;22.10;10.70;;;;;;;0.76;100.00;99441.58;221851;1275;25479;-75
2023/01/22 09:16:14;;;;;;;24.80;12.20;;;;;;;0.82;100.00;99442.38;221665;1276;22831;-75
2023/01/22 09:21:17;;;;;;;27.60;13.60;;;;;;;0.90;100.00;99438.41;221732;1260;22782;-75
2023/01/22 09:26:21;;;;;;;39.30;18.10;;;;;;;0.93;100.00;99430.73;221642;1277;22559;-75
2023/01/22 09:31:23;;;;;;;30.90;15.60;;;;;;;1.08;100.00;99428.08;221102;1277;726248;-74
2023/01/22 09:36:29;;;;;;;33.90;18.10;;;;;;;1.15;100.00;99435.48;221736;1277;24963;-74
2023/01/22 09:41:39;;;;;;;31.30;14.40;;;;;;;1.23;100.00;99438.20;221676;1277;22560;-74
2023/01/22 09:47:16;;;;;;;37.70;20.30;;;;;;;1.25;100.00;99439.61;221675;1275;25243;-75
2023/01/22 09:52:31;;;;;;;43.20;20.80;;;;;;;1.30;100.00;99433.04;221755;1277;23786;-75
2023/01/22 09:57:33;;;;;;;37.70;19.70;;;;;;;1.32;100.00;99433.48;221658;1254;25493;-74
2023/01/22 10:02:45;;;;;;;32.70;17.30;;;;;;;1.34;100.00;99437.01;221629;1277;22538;-75
2023/01/22 10:07:56;;;;;;;39.70;19.90;;;;;;;1.39;100.00;99431.00;221812;1277;22556;-74
2023/01/22 10:13:09;;;;;;;39.30;19.50;;;;;;;1.47;100.00;99439.00;221714;1274;24154;-75
2023/01/22 10:18:23;;;;;;;34.70;17.70;;;;;;;1.50;100.00;99445.70;221769;1277;22551;-75
2023/01/22 10:23:26;;;;;;;37.50;19.20;;;;;;;1.49;100.00;99451.22;221858;1277;22534;-75
2023/01/22 10:28:29;;;;;;;42.50;22.70;;;;;;;1.60;100.00;99451.03;221712;1277;25173;-75
2023/01/22 10:33:37;;;;;;;30.00;17.10;;;;;;;1.66;100.00;99459.53;221686;1276;22517;-76
2023/01/22 10:38:40;;;;;;;31.40;15.70;;;;;;;1.75;100.00;99459.84;221723;1272;22569;-75
2023/01/22 10:43:42;;;;;;;44.00;22.80;;;;;;;1.80;100.00;99458.10;221784;1277;22658;-75
2023/01/22 10:48:44;;;;;;;38.90;20.00;;;;;;;1.86;100.00;99458.63;221474;1277;24205;-75
2023/01/22 10:53:56;;;;;;;39.70;19.50;;;;;;;1.91;100.00;99455.54;221833;1277;24477;-75
2023/01/22 10:59:04;;;;;;;41.10;21.30;;;;;;;1.87;100.00;99447.33;221883;1277;22551;-75
2023/01/22 11:04:28;;;;;;;41.60;20.60;;;;;;;1.86;100.00;99447.20;221693;1277;24715;-74
2023/01/22 11:09:52;;;;;;;39.00;18.60;;;;;;;1.89;100.00;99450.56;221658;1262;24231;-73
2023/01/22 11:15:31;;;;;;;28.90;15.60;;;;;;;1.97;100.00;99451.08;221641;1277;24355;-74
2023/01/22 11:20:45;;;;;;;34.30;17.30;;;;;;;1.99;100.00;99448.48;221680;1273;25395;-74
2023/01/22 11:26:10;;;;;;;46.80;23.70;;;;;;;1.96;100.00;99448.30;221785;1273;23008;-75
2023/01/22 11:31:43;;;;;;;44.30;22.40;;;;;;;1.97;100.00;99441.80;221682;1277;22493;-75
2023/01/22 11:37:03;;;;;;;40.30;22.10;;;;;;;2.00;100.00;99441.86;221808;1274;22771;-74
2023/01/22 11:42:24;;;;;;;34.10;19.90;;;;;;;2.11;100.00;99442.67;221658;1277;24104;-75
2023/01/22 11:47:33;;;;;;;50.60;27.00;;;;;;;2.11;100.00;99443.48;221674;1276;24119;-74
2023/01/22 11:52:53;;;;;;;44.90;21.60;;;;;;;2.10;100.00;99453.77;221691;1275;22536;-74
2023/01/22 11:58:30;;;;;;;48.30;23.70;;;;;;;2.02;100.00;99451.55;221716;1275;25245;-75
2023/01/22 12:03:43;;;;;;;36.80;20.30;;;;;;;2.01;100.00;99442.30;221486;1277;25492;-76
2023/01/22 12:09:00;;;;;;;48.70;21.50;;;;;;;1.91;100.00;99444.36;221682;1273;24281;-75
2023/01/22 12:14:18;;;;;;;50.10;26.00;;;;;;;1.82;100.00;99446.38;221749;1274;25425;-74
2023/01/22 12:19:48;;;;;;;48.10;23.20;;;;;;;1.74;100.00;99445.75;221705;1275;23338;-75
2023/01/22 12:25:00;;;;;;;42.10;19.80;;;;;;;1.68;100.00;99453.42;221703;1274;23104;-75
2023/01/22 12:30:42;;;;;;;75.70;33.60;;;;;;;1.59;100.00;99459.94;221733;1277;24288;-75
2023/01/22 12:35:52;;;;;;;40.20;20.80;;;;;;;1.59;100.00;99471.08;221804;1277;24215;-74
2023/01/22 12:41:17;;;;;;;44.60;22.90;;;;;;;1.63;100.00;99474.74;221783;1277;22552;-73
2023/01/22 12:46:41;;;;;;;55.00;27.90;;;;;;;1.65;100.00;99481.67;221953;1277;22628;-75
2023/01/22 12:51:52;;;;;;;41.70;21.90;;;;;;;1.65;100.00;99480.98;221941;1277;25469;-74
2023/01/22 12:57:15;;;;;;;65.60;32.30;;;;;;;1.61;100.00;99480.08;221642;1277;22565;-74
2023/01/22 13:02:23;;;;;;;60.40;31.30;;;;;;;1.63;100.00;99491.94;221738;1276;23984;-74
2023/01/22 13:07:28;;;;;;;46.20;23.60;;;;;;;1.61;100.00;99496.30;221739;1276;22545;-74
2023/01/22 13:12:45;;;;;;;56.50;28.00;;;;;;;1.54;100.00;99494.78;221727;1277;22527;-75
2023/01/22 13:18:02;;;;;;;57.50;27.80;;;;;;;1.49;100.00;99494.89;221803;1278;25204;-74
2023/01/22 13:23:17;;;;;;;63.80;30.70;;;;;;;1.46;100.00;99502.23;221648;1277;22669;-74
2023/01/22 13:28:24;;;;;;;50.30;26.00;;;;;;;1.50;100.00;99503.66;221741;1277;22535;-74
2023/01/22 13:33:27;;;;;;;46.20;24.00;;;;;;;1.50;100.00;99503.90;221865;1277;22536;-74
2023/01/22 13:38:34;;;;;;;56.60;28.20;;;;;;;1.50;100.00;99510.05;221848;1277;22571;-76
2023/01/22 13:43:38;;;;;;;46.60;23.10;;;;;;;1.57;100.00;99519.03;221609;1273;24240;-74
2023/01/22 13:48:41;;;;;;;51.20;26.70;;;;;;;1.53;100.00;99524.69;221788;1274;26381;-74
2023/01/22 13:53:46;;;;;;;65.10;32.50;;;;;;;1.49;100.00;99532.64;221756;1274;22549;-74
2023/01/22 13:59:03;;;;;;;66.30;32.10;;;;;;;1.52;100.00;99537.13;221693;1277;25258;-73
2023/01/22 14:04:22;;;;;;;53.60;27.40;;;;;;;1.52;100.00;99534.33;221746;1276;22567;-73
2023/01/22 14:09:37;;;;;;;53.70;27.30;;;;;;;1.46;100.00;99534.80;221730;1273;22538;-73
2023/01/22 14:14:40;;;;;;;69.20;32.20;;;;;;;1.42;100.00;99537.45;221678;1277;25245;-74
2023/01/22 14:19:43;;;;;;;70.70;33.10;;;;;;;1.45;100.00;99544.92;221789;1273;24382;-74
2023/01/22 14:24:46;;;;;;;73.20;34.20;;;;;;;1.53;100.00;99548.21;221688;1277;24356;-73
2023/01/22 14:29:49;;;;;;;67.40;32.20;;;;;;;1.59;100.00;99547.09;221754;1273;22539;-73
2023/01/22 14:34:51;;;;;;;48.50;24.00;;;;;;;1.60;100.00;99551.67;221624;1272;24276;-74
2023/01/22 14:39:53;;;;;;;50.60;25.30;;;;;;;1.48;100.00;99553.44;221726;1277;22669;-74
2023/01/22 14:44:55;;;;;;;50.40;23.70;;;;;;;1.47;100.00;99561.61;221649;1277;24348;-73
2023/01/22 14:49:57;;;;;;;60.50;27.40;;;;;;;1.46;100.00;99564.58;221756;1274;22537;-74
2023/01/22 14:54:59;;;;;;;64.20;28.20;;;;;;;1.42;100.00;99575.48;221699;1260;24291;-73
2023/01/22 15:00:04;;;;;;;50.40;25.30;;;;;;;1.37;100.00;99576.18;221769;1273;22603;-73
2023/01/22 15:05:07;;;;;;;48.40;22.70;;;;;;;1.28;100.00;99584.00;221532;1273;25412;-73
2023/01/22 15:10:10;;;;;;;57.30;27.30;;;;;;;1.25;100.00;99583.60;221906;1277;25469;-74
2023/01/22 15:15:13;;;;;;;54.60;27.00;;;;;;;1.23;100.00;99598.06;221475;1276;22627;-73
2023/01/22 15:20:16;;;;;;;49.50;23.80;;;;;;;1.21;100.00;99604.58;221621;1277;24275;-74
2023/01/22 15:25:19;;;;;;;65.00;31.50;;;;;;;1.13;100.00;99610.06;221695;1273;23539;-74
2023/01/22 15:30:22;;;;;;;55.20;27.80;;;;;;;1.09;100.00;99614.27;221663;1277;22559;-73
2023/01/22 15:35:24;;;;;;;76.30;33.50;;;;;;;1.04;100.00;99619.38;221815;1269;22981;-74
2023/01/22 15:40:26;;;;;;;77.20;35.00;;;;;;;1.05;100.00;99625.18;221850;1277;22537;-76
2023/01/22 15:45:29;;;;;;;85.40;36.70;;;;;;;1.05;100.00;99631.80;221846;1273;22620;-74
2023/01/22 15:50:34;;;;;;;97.50;37.40;;;;;;;1.07;100.00;99637.64;221733;1277;24227;-74
2023/01/22 15:55:36;;;;;;;81.20;37.60;;;;;;;1.09;100.00;99639.15;221731;1276;23754;-75
2023/01/22 16:00:39;;;;;;;91.80;39.10;;;;;;;1.10;100.00;99649.21;221712;1260;24107;-73
2023/01/22 16:05:41;;;;;;;83.30;36.40;;;;;;;1.14;100.00;99649.45;221636;1277;22533;-74
2023/01/22 16:10:44;;;;;;;76.50;32.70;;;;;;;1.15;100.00;99655.67;221568;1276;25113;-74
2023/01/22 16:15:58;;;;;;;104.60;44.20;;;;;;;1.14;100.00;99653.02;221661;1276;25354;-74
2023/01/22 16:21:05;;;;;;;103.10;40.50;;;;;;;1.13;100.00;99663.79;221720;1276;25319;-74
2023/01/22 16:26:12;;;;;;;110.40;41.40;;;;;;;1.12;100.00;99674.30;221746;1276;25259;-74
2023/01/22 16:31:21;;;;;;;103.20;39.10;;;;;;;1.14;100.00;99675.84;221734;1277;25236;-74
2023/01/22 16:36:28;;;;;;;104.10;39.60;;;;;;;1.14;100.00;99681.44;221823;1270;24334;-74
2023/01/22 16:41:33;;;;;;;113.90;43.00;;;;;;;1.16;100.00;99689.04;221835;1275;24295;-76
2023/01/22 16:46:41;;;;;;;117.00;41.20;;;;;;;1.20;100.00;99690.83;221709;1276;24200;-74
2023/01/22 16:51:47;;;;;;;127.40;42.00;;;;;;;1.21;100.00;99698.30;221823;1277;22557;-74
2023/01/22 16:56:49;;;;;;;109.10;38.80;;;;;;;1.25;100.00;99704.27;221846;1277;24235;-74
2023/01/22 17:01:54;;;;;;;85.80;33.50;;;;;;;1.26;100.00;99706.20;221793;1266;22593;-74
2023/01/22 17:07:00;;;;;;;100.50;39.20;;;;;;;1.21;100.00;99707.63;221661;1277;22541;-75
2023/01/22 17:12:04;;;;;;;113.70;42.10;;;;;;;1.15;100.00;99710.35;221512;1277;22552;-74
2023/01/22 17:17:08;;;;;;;119.70;40.00;;;;;;;1.17;100.00;99718.73;221644;1277;25425;-74
2023/01/22 17:22:12;;;;;;;149.70;51.00;;;;;;;1.18;100.00;99722.91;221601;1273;22948;-74
2023/01/22 17:27:17;;;;;;;139.60;45.60;;;;;;;1.18;100.00;99724.20;221739;1277;23518;-74
2023/01/22 17:32:21;;;;;;;127.10;43.30;;;;;;;1.18;100.00;99726.96;221610;1276;24373;-75
2023/01/22 17:37:23;;;;;;;165.50;51.40;;;;;;;1.19;100.00;99731.96;221735;1275;22573;-74
2023/01/22 17:42:25;;;;;;;163.10;50.10;;;;;;;1.22;100.00;99746.58;221712;1277;22534;-74
2023/01/22 17:47:27;;;;;;;110.00;38.00;;;;;;;1.22;100.00;99757.30;221782;1273;22533;-76
2023/01/22 17:52:30;;;;;;;133.50;43.00;;;;;;;1.17;100.00;99761.64;221679;1277;22742;-74
2023/01/22 17:57:35;;;;;;;122.40;40.70;;;;;;;1.17;100.00;99774.02;221691;1277;24108;-74
2023/01/22 18:02:39;;;;;;;111.30;36.80;;;;;;;1.18;100.00;99778.33;221707;1277;24319;-74
2023/01/22 18:08:01;;;;;;;102.10;34.80;;;;;;;1.17;100.00;99781.51;221598;1273;24661;-74
2023/01/22 18:13:03;;;;;;;116.50;34.80;;;;;;;1.17;100.00;99785.48;221708;1277;25569;-75
2023/01/22 18:18:06;;;;;;;101.50;32.90;;;;;;;1.19;100.00;99797.58;221582;1273;22652;-74
2023/01/22 18:23:09;;;;;;;111.70;33.50;;;;;;;1.22;100.00;99801.70;221699;1276;25298;-74
2023/01/22 18:28:13;;;;;;;102.20;34.10;;;;;;;1.23;100.00;99807.13;221857;1272;22677;-74
2023/01/22 18:33:17;;;;;;;79.80;28.10;;;;;;;1.23;100.00;99804.13;221825;1275;25438;-75
2023/01/22 18:38:23;;;;;;;87.30;29.30;;;;;;;1.19;100.00;99808.30;221735;1277;22540;-74
2023/01/22 18:43:26;;;;;;;100.60;32.80;;;;;;;1.16;100.00;99812.32;221763;1277;22530;-74
2023/01/22 18:48:28;;;;;;;100.40;35.80;;;;;;;1.15;100.00;99822.79;221745;1273;22550;-75
2023/01/22 18:53:31;;;;;;;96.20;31.50;;;;;;;1.19;100.00;99824.18;221672;1277;22537;-74
2023/01/22 18:58:33;;;;;;;81.00;27.80;;;;;;;1.22;100.00;99829.66;221725;1260;25395;-74
2023/01/22 19:03:35;;;;;;;96.00;32.00;;;;;;;1.21;100.00;99834.86;221686;1275;22746;-73
2023/01/22 19:09:02;;;;;;;102.30;31.90;;;;;;;1.22;100.00;99844.29;221791;1277;22836;-74
2023/01/22 19:14:07;;;;;;;118.60;34.00;;;;;;;1.22;100.00;99848.66;221708;1273;22534;-75
2023/01/22 19:19:12;;;;;;;121.20;34.20;;;;;;;1.23;100.00;99849.80;221606;1276;23805;-74
2023/01/22 19:24:34;;;;;;;114.20;33.80;;;;;;;1.22;100.00;99856.02;221554;1278;22576;-75
2023/01/22 19:29:37;;;;;;;99.10;29.90;;;;;;;1.23;100.00;99853.38;221545;1279;22602;-74
2023/01/22 19:34:41;;;;;;;122.30;36.30;;;;;;;1.24;100.00;99851.72;221452;1275;24338;-74
2023/01/22 19:39:43;;;;;;;114.70;31.90;;;;;;;1.27;100.00;99856.44;221626;1279;23160;-74
2023/01/22 19:44:45;;;;;;;97.20;29.80;;;;;;;1.28;100.00;99863.38;221422;1269;25285;-74
2023/01/22 19:49:50;;;;;;;102.80;30.40;;;;;;;1.29;100.00;99863.10;221662;1277;22560;-74
2023/01/22 19:54:54;;;;;;;81.00;27.70;;;;;;;1.29;100.00;99862.14;221545;1277;22539;-74
2023/01/22 19:59:58;;;;;;;80.50;25.20;;;;;;;1.30;100.00;99860.51;221747;1277;22577;-75
2023/01/22 20:05:00;;;;;;;71.10;25.40;;;;;;;1.32;100.00;99854.94;221737;1274;22613;-74
2023/01/22 20:10:04;;;;;;;89.40;30.90;;;;;;;1.33;100.00;99862.54;221713;1273;24235;-75
2023/01/22 20:15:07;;;;;;;70.80;26.10;;;;;;;1.33;100.00;99866.91;221726;1275;23636;-73
2023/01/22 20:20:11;;;;;;;68.30;24.90;;;;;;;1.32;100.00;99879.39;221790;1275;24427;-75
2023/01/22 20:25:14;;;;;;;61.20;24.00;;;;;;;1.31;100.00;99876.88;221815;1272;22564;-74
2023/01/22 20:30:17;;;;;;;44.50;19.10;;;;;;;1.32;100.00;99886.54;221458;1277;22673;-74
2023/01/22 20:35:20;;;;;;;65.40;24.60;;;;;;;1.33;100.00;99891.98;221739;1272;22537;-74
2023/01/22 20:40:24;;;;;;;64.80;21.50;;;;;;;1.34;100.00;99900.60;221707;1275;24212;-74
2023/01/22 20:45:27;;;;;;;61.10;24.10;;;;;;;1.35;100.00;99900.40;221801;1277;25451;-75
2023/01/22 20:50:29;;;;;;;79.70;27.60;;;;;;;1.38;100.00;99902.64;221606;1259;23803;-74
2023/01/22 20:55:33;;;;;;;70.40;23.70;;;;;;;1.41;100.00;99906.05;221701;1275;22881;-74
2023/01/22 21:00:35;;;;;;;65.70;25.30;;;;;;;1.43;100.00;99908.58;221681;1272;22547;-73
2023/01/22 21:05:39;;;;;;;62.40;24.50;;;;;;;1.41;100.00;99917.88;221729;1273;25190;-76
2023/01/22 21:10:42;;;;;;;65.00;24.50;;;;;;;1.39;100.00;99912.31;221748;1277;24326;-73
2023/01/22 21:15:45;;;;;;;57.30;25.30;;;;;;;1.39;100.00;99913.70;221699;1275;22534;-75
2023/01/22 21:20:49;;;;;;;69.80;27.50;;;;;;;1.39;100.00;99925.95;221791;1275;22550;-74
2023/01/22 21:25:51;;;;;;;66.70;23.30;;;;;;;1.36;100.00;99935.17;221623;1272;22579;-74
2023/01/22 21:30:53;;;;;;;66.00;27.10;;;;;;;1.35;100.00;99930.05;221762;1273;22603;-74
2023/01/22 21:35:55;;;;;;;48.60;19.10;;;;;;;1.35;100.00;99941.59;221641;1277;159409;-74
2023/01/22 21:41:12;;;;;;;53.40;22.30;;;;;;;1.33;100.00;99950.96;221680;1272;22715;-73
2023/01/22 21:46:26;;;;;;;41.80;17.40;;;;;;;1.34;100.00;99965.30;221862;1273;25376;-74
2023/01/22 21:51:31;;;;;;;41.80;17.50;;;;;;;1.34;100.00;99977.97;221778;1277;22533;-74
2023/01/22 21:56:33;;;;;;;44.20;19.50;;;;;;;1.36;100.00;99985.50;221713;1276;22543;-74
2023/01/22 22:01:36;;;;;;;60.50;23.20;;;;;;;1.36;100.00;99991.80;221528;1264;25329;-74
2023/01/22 22:06:38;;;;;;;55.40;22.40;;;;;;;1.36;100.00;100006.21;221685;1272;22549;-74
2023/01/22 22:11:42;;;;;;;33.10;14.10;;;;;;;1.38;100.00;99999.77;221868;1277;22707;-74
2023/01/22 22:16:44;;;;;;;24.20;11.40;;;;;;;1.38;100.00;99997.00;221769;1273;22662;-76
2023/01/22 22:21:50;;;;;;;30.60;13.30;;;;;;;1.39;100.00;100000.59;221712;1275;24195;-74
2023/01/22 22:26:52;;;;;;;27.00;12.30;;;;;;;1.38;100.00;99997.25;221741;1273;23937;-74
2023/01/22 22:31:54;;;;;;;33.50;14.10;;;;;;;1.41;100.00;100007.98;221689;1275;24238;-75
2023/01/22 22:36:59;;;;;;;44.90;17.40;;;;;;;1.42;100.00;100006.70;221666;1275;26503;-75
2023/01/22 22:42:03;;;;;;;46.00;19.10;;;;;;;1.43;100.00;100001.92;221919;1266;25708;-74
2023/01/22 22:47:05;;;;;;;50.70;20.40;;;;;;;1.41;100.00;100002.05;221662;1275;22643;-75
2023/01/22 22:52:11;;;;;;;33.60;13.80;;;;;;;1.41;100.00;99993.47;221883;1254;25520;-74
2023/01/22 22:57:22;;;;;;;35.70;15.40;;;;;;;1.41;100.00;99991.85;221844;1275;24298;-74
2023/01/22 23:02:25;;;;;;;37.60;15.20;;;;;;;1.42;100.00;99993.45;221690;1277;22578;-74
2023/01/22 23:07:31;;;;;;;23.20;11.30;;;;;;;1.40;100.00;99991.69;221809;1277;22750;-75
2023/01/22 23:12:33;;;;;;;44.70;18.40;;;;;;;1.37;100.00;99993.63;221813;1272;22526;-75
2023/01/22 23:17:37;;;;;;;33.30;14.40;;;;;;;1.40;100.00;100003.87;221730;1277;23247;-75